AKDT,Max TemperatureF,Mean TemperatureF,Min TemperatureF,Max Dew PointF,MeanDew PointF,Min DewpointF,Max Humidity, Mean Humidity, Min Humidity, Max Sea Level PressureIn, Mean Sea Level PressureIn, Min Sea Level PressureIn, Max VisibilityMiles, Mean VisibilityMiles, Min VisibilityMiles, Max Wind SpeedMPH, Mean Wind SpeedMPH, Max Gust SpeedMPH,PrecipitationIn, CloudCover, Events, WindDirDegrees
2011-10-1,28,22,17,18,16,10,93,79,55,29.68,29.64,29.60,10,10,7,10,4,,0.00,5,,203
2011-10-2,26,16,6,21,12,1,92,81,73,29.70,29.59,29.49,10,9,2,15,4,,0.00,5,,188
2011-10-3,33,30,26,30,27,21,93,89,80,29.45,29.36,29.31,10,5,1,14,5,18,0.03,8,,198
2011-10-4,30,26,21,28,24,18,93,87,80,29.50,29.49,29.43,10,10,0,14,7,,0.00,7,,179
2011-10-5,26,24,21,21,21,18,86,84,74,29.53,29.49,29.45,10,8,1,7,4,,0.00,8,,45
2011-10-6,26,22,19,21,19,18,93,86,74,29.46,29.43,29.42,10,7,0,6,3,,0.00,8,,44
2011-10-7,24,20,17,21,18,14,93,87,80,29.69,29.60,29.51,10,6,0,7,4,,0.00,8,,22
2011-10-8,24,22,21,19,18,18,93,85,80,29.78,29.76,29.73,10,10,7,9,4,,0.00,8,,28
2011-10-9,23,22,21,19,18,16,93,85,80,29.75,29.73,29.71,10,9,3,10,6,,0.00,8,,41
2011-10-10,19,16,14,16,13,10,93,86,79,29.80,29.78,29.76,10,6,0,9,8,,0.00,8,,39
2011-10-11,15,8,0,12,7,-6,92,83,72,29.85,29.81,29.79,10,10,4,9,7,,0.00,6,,40
2011-10-12,21,12,3,16,10,0,85,77,68,29.87,29.85,29.77,10,10,4,17,7,23,0.00,8,,202
2011-10-13,24,22,21,19,17,16,86,79,69,29.73,29.67,29.62,10,7,2,18,15,26,0.00,8,,215
2011-10-14,24,20,15,19,17,9,86,81,73,29.60,29.48,29.40,10,10,10,12,6,16,0.00,6,,193
2011-10-15,30,21,12,27,21,9,93,87,79,29.51,29.45,29.42,10,9,2,12,3,,0.00,7,,181
2011-10-16,30,27,24,27,25,21,93,87,80,29.73,29.64,29.54,10,10,5,10,6,,0.00,7,,173
2011-10-17,28,24,19,25,21,16,93,88,80,29.80,29.78,29.75,10,8,0,10,2,,0.00,8,,190
2011-10-18,26,22,17,23,19,12,93,89,79,29.75,29.66,29.60,10,6,0,6,3,,0.00,8,,29
2011-10-19,21,18,14,18,14,10,93,86,79,29.59,29.58,29.56,10,9,3,6,2,,0.00,8,,10
2011-10-20,21,16,10,19,12,7,100,87,79,29.64,29.62,29.59,10,8,1,9,6,,0.00,6,,193
2011-10-21,15,3,-9,10,0,-13,92,85,77,29.63,29.57,29.49,10,7,0,6,2,,0.00,8,,4
2011-10-22,10,9,8,7,5,3,92,83,73,29.52,29.48,29.46,10,7,2,10,4,,0.00,8,,30
2011-10-23,12,6,1,7,4,-6,85,80,72,29.67,29.63,29.58,10,9,3,12,8,16,0.00,7,,35
2011-10-24,15,6,-2,12,0,-8,92,84,78,29.65,29.57,29.48,10,7,1,12,3,,0.00,7,,349
2011-10-25,14,10,6,9,5,0,92,83,72,29.45,29.30,29.15,10,8,2,13,7,,0.00,6,,23
2011-10-26,14,12,10,10,8,5,86,82,79,29.40,29.23,29.11,10,5,2,17,11,22,0.00,8,,41
2011-10-27,17,14,10,12,11,7,92,82,73,29.50,29.47,29.43,10,10,6,15,8,16,0.00,7,,191
2011-10-28,10,6,1,7,2,-2,92,83,78,29.40,29.30,29.24,10,7,2,9,5,,0.00,7,,24
2011-10-29,8,4,1,3,1,-2,85,80,73,29.27,29.25,29.25,10,6,2,14,8,18,0.00,8,,36
2011-10-30,8,4,1,3,1,-2,85,81,78,29.42,29.34,29.28,10,4,2,12,8,,0.00,8,,34
2011-10-31,1,0,-2,0,-5,-9,92,81,71,29.58,29.54,29.48,10,6,1,20,10,29,0.00,7,,185